• Join FlightAware (Why Join?)
  • Login
  • US Flag 
01:43PM EDT


 

Airport Tracker/Info


-or-


 

Live Flight TrackerFlight Track Log ✈ VNR160 ✈ 22-Apr-2013 ✈ KSTP - KHFJ

Flight Track Log - Related Links

Times and Time Zones

All times are in EDT time to prevent confusion due to time zone crossing. See the VNR160 flight status page for this flight to view local times or setup timezone preferences in your user account.

Time Position Orientation Groundspeed Altitude Reporting Facility
EDT Latitude Longitude Course Direction KTS MPH feet Rate Location/Type
10:49AM 44.9578 -93.0617 24° Northeast 151 174 1,900  Level FAA TRACON SMA TRACON (SMA)
10:50AM 44.9694 -93.0542 24° Northeast 154 177 2,600 2,280 Climbing FAA TRACON SMA TRACON (SMA)
10:50AM 44.9819 -93.0514 North 150 173 3,400 2,100 Climbing FAA TRACON SMA TRACON (SMA)
10:50AM 44.9978 -93.0486 North 146 168 4,000 1,620 Climbing FAA TRACON SMA TRACON (SMA)
10:51AM 45.0111 -93.0519 350° North 163 188 4,500 1,620 Climbing FAA TRACON SMA TRACON (SMA)
10:51AM 45.0247 -93.0583 342° North 167 192 5,100 1,920 Climbing FAA TRACON SMA TRACON (SMA)
10:51AM 45.0436 -93.0669 342° North 180 207 5,800 1,920 Climbing FAA TRACON SMA TRACON (SMA)
10:52AM 45.0575 -93.0792 328° Northwest 196 226 6,400 2,100 Climbing FAA TRACON SMA TRACON (SMA)
10:52AM 45.0594 -93.1000 278° West 199 229 7,200 2,820 Climbing FAA TRACON SMA TRACON (SMA)
10:52AM 45.0450 -93.1125 211° Southwest 187 215 8,300 2,400 Climbing FAA TRACON SMA TRACON (SMA)
10:53AM 45.0300 -93.1125 180° South 175 201 8,800 1,500 Climbing FAA TRACON SMA TRACON (SMA)
10:53AM 45.0136 -93.1111 177° South 185 213 9,300 1,800 Climbing FAA TRACON SMA TRACON (SMA)
10:53AM 44.9919 -93.1094 177° South 201 231 10,000 2,100 Climbing FAA TRACON SMA TRACON (SMA)
10:54AM 44.9742 -93.1078 176° South 207 238 10,700 1,800 Climbing FAA TRACON SMA TRACON (SMA)
10:54AM 44.9564 -93.1061 176° South 208 239 11,200 1,500 Climbing FAA TRACON SMA TRACON (SMA)
10:54AM 44.9331 -93.1103 187° South 219 252 11,700 1,020 Climbing FAA TRACON SMA TRACON (SMA)
10:55AM 44.9158 -93.1228 207° Southwest 226 260 11,900 420 Climbing FAA TRACON SMA TRACON (SMA)
10:55AM 44.8972 -93.1375 209° Southwest 242 278 12,000 600 Climbing FAA TRACON SMA TRACON (SMA)
10:55AM 44.8703 -93.1581 208° Southwest 284 327 12,300 1,800 Climbing FAA TRACON SMA TRACON (SMA)
10:56AM 44.8481 -93.1775 212° Southwest 304 350 13,200 2,700 Climbing FAA TRACON SMA TRACON (SMA)
10:56AM 44.8300 -93.1983 219° Southwest 283 326 14,100 2,820 Climbing FAA TRACON SMA TRACON (SMA)
10:56AM 44.8150 -93.2164 220° Southwest 245 282 15,100 2,580 Climbing FAA TRACON SMA TRACON (SMA)
10:57AM 44.7861 -93.2508 220° Southwest 190 219 16,700 1,800 Climbing FAA TRACON SMA TRACON (SMA)
10:57AM 44.7725 -93.2664 219° Southwest 197 227 16,900 420 Climbing FAA TRACON SMA TRACON (SMA)
10:58AM 44.7533 -93.2869 217° Southwest 221 254 17,000 120 Climbing FAA TRACON SMA TRACON (SMA)
10:58AM 44.7364 -93.3047 217° Southwest 242 278 17,000 540 Level FAA TRACON SMA TRACON (SMA)
10:58AM 44.7183 -93.3233 216° Southwest 257 296 17,400 2,100 Climbing FAA TRACON SMA TRACON (SMA)
10:59AM 44.6969 -93.3447 215° Southwest 249 287 18,400 3,000 Climbing FAA TRACON SMA TRACON (SMA)
10:59AM 44.6817 -93.3603 216° Southwest 228 262 19,400 2,820 Climbing FAA TRACON SMA TRACON (SMA)
10:59AM 44.6669 -93.3744 214° Southwest 211 243 20,300 2,400 Climbing FAA TRACON SMA TRACON (SMA)
11:00AM 44.6494 -93.3925 216° Southwest 202 232 21,000 1,680 Climbing FAA TRACON SMA TRACON (SMA)
11:00AM 44.6347 -93.4078 216° Southwest 209 241 21,400 1,200 Climbing FAA TRACON SMA TRACON (SMA)
11:00AM 44.6194 -93.4236 216° Southwest 220 253 21,800 1,320 Climbing FAA TRACON SMA TRACON (SMA)
11:01AM 44.6033 -93.4397 215° Southwest 228 262 22,300 1,800 Climbing FAA TRACON SMA TRACON (SMA)
11:01AM 44.5833 -93.4600 216° Southwest 232 267 23,000 1,800 Climbing FAA TRACON SMA TRACON (SMA)
11:01AM 44.5672 -93.4764 216° Southwest 233 268 23,500 1,620 Climbing FAA TRACON SMA TRACON (SMA)
11:02AM 44.5464 -93.4975 216° Southwest 238 274 24,100 1,800 Climbing FAA TRACON SMA TRACON (SMA)
11:02AM 44.5297 -93.5142 215° Southwest 240 276 24,700 1,500 Climbing FAA TRACON SMA TRACON (SMA)
11:02AM 44.5131 -93.5317 217° Southwest 241 277 25,100 1,620 Climbing FAA TRACON SMA TRACON (SMA)
11:03AM 44.4919 -93.5531 216° Southwest 242 278 25,800 1,620 Climbing FAA TRACON SMA TRACON (SMA)
11:03AM 44.4750 -93.5700 216° Southwest 244 281 26,200 1,200 Climbing FAA TRACON SMA TRACON (SMA)
11:03AM 44.4578 -93.5867 215° Southwest 244 281 26,600 1,320 Climbing FAA TRACON SMA TRACON (SMA)
11:04AM 44.4406 -93.6047 217° Southwest 248 285 27,100 1,620 Climbing FAA TRACON SMA TRACON (SMA)
11:04AM 44.4186 -93.6256 214° Southwest 250 288 27,700 1,620 Climbing FAA TRACON SMA TRACON (SMA)
11:04AM 44.4006 -93.6419 213° Southwest 252 290 28,200 1,920 Climbing FAA TRACON SMA TRACON (SMA)
11:05AM 44.3772 -93.6600 209° Southwest 249 287 29,000 1,980 Climbing FAA TRACON SMA TRACON (SMA)
11:05AM 44.3592 -93.6750 211° Southwest 246 283 29,500 1,500 Climbing FAA TRACON SMA TRACON (SMA)
11:05AM 44.3414 -93.6900 211° Southwest 243 280 30,000 1,380 Climbing FAA TRACON SMA TRACON (SMA)
11:06AM 44.3192 -93.7086 211° Southwest 243 280 30,500 1,140 Climbing FAA TRACON SMA TRACON (SMA)
11:06AM 44.3014 -93.7233 211° Southwest 241 277 30,800 900 Climbing FAA TRACON SMA TRACON (SMA)
11:06AM 44.2828 -93.7369 208° Southwest 243 280 31,100 900 Climbing FAA TRACON SMA TRACON (SMA)
11:07AM 44.2603 -93.7556 211° Southwest 246 283 31,400 600 Climbing FAA TRACON SMA TRACON (SMA)
11:07AM 44.2417 -93.7711 211° Southwest 250 288 31,500 600 Climbing FAA TRACON SMA TRACON (SMA)
11:07AM 44.2225 -93.7869 211° Southwest 257 296 31,800 600 Climbing FAA TRACON SMA TRACON (SMA)
11:08AM 44.2033 -93.8028 211° Southwest 260 299 31,900 240 Climbing FAA TRACON SMA TRACON (SMA)
11:08AM 44.1789 -93.8231 211° Southwest 265 305 32,000 60 Climbing FAA TRACON SMA TRACON (SMA)
11:09AM 44.1050 -93.8781 208° Southwest 276 318 32,000  Level Minneapolis Center
11:10AM 44.0350 -93.9347 210° Southwest 291 335 32,000  Level Minneapolis Center
11:11AM 43.9628 -93.9922 210° Southwest 298 343 32,000  Level Minneapolis Center
11:12AM 43.8769 -94.0594 209° Southwest 296 341 32,000  Level Minneapolis Center
11:13AM 43.8039 -94.1164 209° Southwest 300 345 32,000  Level Minneapolis Center
11:14AM 43.7319 -94.1750 210° Southwest 302 348 32,000  Level Minneapolis Center
11:15AM 43.6558 -94.2208 204° Southwest 303 349 32,000  Level Minneapolis Center
11:17AM 43.5669 -94.2306 185° South 320 368 32,000  Level Minneapolis Center
11:18AM 43.4836 -94.2353 182° South 322 371 32,000  Level Minneapolis Center
11:19AM 43.3769 -94.2444 184° South 322 371 32,000  Level Minneapolis Center
11:20AM 43.2900 -94.2494 182° South 324 373 32,000  Level Minneapolis Center
11:21AM 43.1989 -94.2558 183° South 327 376 32,000  Level Minneapolis Center
11:22AM 43.1089 -94.2622 183° South 324 373 32,000  Level Minneapolis Center
11:23AM 43.0183 -94.2678 183° South 325 374 32,000  Level Minneapolis Center
11:24AM 42.9292 -94.2736 183° South 325 374 32,000  Level Minneapolis Center
11:25AM 42.8192 -94.2819 183° South 329 379 32,000  Level Minneapolis Center
11:26AM 42.7286 -94.2875 183° South 330 380 32,000  Level Minneapolis Center
11:27AM 42.6372 -94.2936 183° South 331 381 32,000  Level Minneapolis Center
11:28AM 42.5450 -94.2917 179° South 333 383 32,000  Level Minneapolis Center
11:29AM 42.4536 -94.2856 177° South 337 388 32,000  Level Minneapolis Center
11:30AM 42.3583 -94.2811 178° South 341 392 32,000  Level Minneapolis Center
11:31AM 42.2447 -94.2725 177° South 339 390 32,000  Level Minneapolis Center
11:32AM 42.1497 -94.2686 178° South 341 392 32,000  Level Minneapolis Center
11:33AM 42.0525 -94.2650 178° South 347 399 32,000  Level Minneapolis Center
11:34AM 41.9553 -94.2589 177° South 348 400 32,000  Level Minneapolis Center
11:35AM 41.8567 -94.2539 178° South 351 404 32,000  Level Minneapolis Center
11:36AM 41.7572 -94.2497 178° South 355 409 32,000  Level Minneapolis Center
11:37AM 41.6581 -94.2439 177° South 356 410 32,000  Level Minneapolis Center
11:38AM 41.5589 -94.2386 178° South 356 410 32,000  Level Minneapolis Center
11:39AM 41.4583 -94.2339 178° South 359 413 32,000  Level Minneapolis Center
11:40AM 41.3597 -94.2272 177° South 355 409 32,000  Level Minneapolis Center
11:41AM 41.2403 -94.2208 178° South 356 410 32,000 420 Level Minneapolis Center
11:42AM 41.1414 -94.2172 178° South 355 409 32,900 900 Climbing Minneapolis Center
11:43AM 41.0478 -94.2142 179° South 350 403 33,900 480 Climbing Minneapolis Center
11:44AM 40.9578 -94.2094 178° South 341 392 34,000  Climbing Minneapolis Center
11:45AM 40.8678 -94.2031 177° South 331 381 34,000  Level Minneapolis Center
11:46AM 40.7717 -94.1978 178° South 339 390 34,000  Level Minneapolis Center
11:47AM 40.6728 -94.1942 178° South 350 403 34,000  Level Minneapolis Center
11:48AM 40.5742 -94.1886 178° South 355 409 34,000  Level Minneapolis Center
11:49AM 40.4569 -94.1836 178° South 355 409 34,000  Level Minneapolis Center
11:50AM 40.3592 -94.1781 178° South 355 409 34,000  Level Minneapolis Center
11:51AM 40.3058 -94.1756 178° South 354 407 34,000  Level Kansas City Center
11:52AM 40.1958 -94.1694 178° South 354 407 34,000 -360 Level Kansas City Center
11:53AM 40.0975 -94.1650 178° South 363 418 33,300 -540 Descending Kansas City Center
11:54AM 39.9822 -94.1592 178° South 370 426 33,000 -180 Descending Kansas City Center
11:55AM 39.8828 -94.1533 177° South 370 426 33,000  Level Kansas City Center
11:56AM 39.7717 -94.1481 178° South 360 414 33,000  Level Kansas City Center
11:57AM 39.6747 -94.1442 178° South 361 415 33,000  Level Kansas City Center
11:58AM 39.5622 -94.1389 178° South 362 417 33,000  Level Kansas City Center
11:59AM 39.4650 -94.1347 178° South 363 418 33,000  Level Kansas City Center
12:00PM 39.3525 -94.1289 178° South 362 417 33,000  Level Kansas City Center
12:01PM 39.2550 -94.1242 178° South 363 418 33,000  Level Kansas City Center
12:02PM 39.1567 -94.1186 177° South 366 421 33,000  Level Kansas City Center
12:03PM 39.0425 -94.1136 178° South 366 421 33,000  Level Kansas City Center
12:04PM 38.9456 -94.1094 178° South 364 419 33,000 -780 Level Kansas City Center
12:05PM 38.8292 -94.1036 178° South 374 430 31,400 -1,800 Descending Kansas City Center
12:06PM 38.7286 -94.0986 178° South 376 433 29,400 -2,340 Descending Kansas City Center
12:08PM 38.6164 -94.0942 178° South 360 414 26,600 -2,520 Descending Kansas City Center
12:09PM 38.5297 -94.0894 178° South 330 380 24,200 -2,640 Descending Kansas City Center
12:10PM 38.4353 -94.0858 178° South 303 349 21,300 -2,340 Descending Kansas City Center
12:11PM 38.3578 -94.0811 177° South 287 330 19,400 -1,740 Descending Kansas City Center
12:12PM 38.2756 -94.0767 178° South 291 335 17,700 -1,440 Descending Kansas City Center
12:13PM 38.1933 -94.0728 178° South 295 339 16,500 -1,200 Descending Kansas City Center
12:14PM 38.1092 -94.0689 178° South 299 344 15,300 -1,200 Descending Kansas City Center
12:15PM 38.0264 -94.0656 178° South 299 344 14,100 -1,200 Descending Kansas City Center
12:16PM 37.9475 -94.0614 178° South 288 331 12,900 -1,320 Descending Kansas City Center
12:17PM 37.8494 -94.0564 178° South 291 335 11,400 -1,380 Descending Kansas City Center
12:18PM 37.7722 -94.0533 178° South 282 325 10,200 -1,200 Descending Kansas City Center
12:19PM 37.7025 -94.0511 179° South 259 298 9,000 -1,200 Descending Kansas City Center
12:20PM 37.6342 -94.0469 177° South 249 287 7,800 -1,200 Descending Kansas City Center
12:21PM 37.5628 -94.0417 177° South 251 289 6,600 -900 Descending Kansas City Center
12:22PM 37.4892 -94.0350 176° South 260 299 6,000 -300 Descending Kansas City Center
12:23PM 37.4092 -94.0294 177° South 249 287 6,000 -300 Level Kansas City Center
12:24PM 37.3378 -94.0253 177° South 251 289 5,500 -660 Descending Kansas City Center
12:25PM 37.2742 -94.0194 176° South 239 275 4,700 -780 Descending Kansas City Center
12:26PM 37.2136 -94.0142 176° South 225 259 3,900 -840 Descending Kansas City Center
12:27PM 37.1533 -94.0103 177° South 221 254 3,100 -840 Descending Kansas City Center